Edenville, MI (48620)

5:42 AM EDT on September 27, 2016 (GMT -0400)
Warren Twp | | Change Station

Elev 725 ft 43.76 °N, 84.52 °W | Updated 8 seconds ago

Clear
Clear
47.1 °F
Feels Like 47 °F
N
0.0
Wind Variable Wind from NW
Gusts 0.0 mph

Today
High -- | Low -- °F
--% Chance of Precip.
Yesterday
High -- | Low -- °F
Precip. -- in
Pressure 29.72 in
Visibility 10.0 miles
Clouds Clear
Windchill 47 °F
Dew Point 44 °F
Humidity 89%
Rainfall 0.00 in
Snow Depth Not available.
7:31 AM 7:24 PM
Waning Crescent, 12% visible
METAR KIKW 270932Z AUTO 19004KT 10SM CLR 09/06 A2972 RMK AO2 T00900058
Pressure 29.72 in
Visibility 10.0 miles
Clouds Clear
Windchill 47 °F
Dew Point 44 °F
Humidity 89%
Rainfall 0.00 in
Snow Depth Not available.
7:31 AM 7:24 PM
Waning Crescent, 12% visible
METAR KIKW 270932Z AUTO 19004KT 10SM CLR 09/06 A2972 RMK AO2 T00900058

10-Day Weather Forecast

Almanac

Astronomy

Sep. 27, 2016 Rise Set
Actual Time
Civil Twilight
Nautical Twilight
Astronomical Twilight
Moon
Length of Visible Light
Length of Day
Tomorrow will be .
, % of the Moon is Illuminated

Today's Extremes

State Highs State Lows

Community

WunderPhotos

Upload Photos

1,942,057 photos uploaded!

WunderBlog® & News

Nearby

Air Quality

  Air Quality AQ Index Pollutant
Not available.

Snow Depth

Station Depth Elevation

Earthquake Activity

City Distance Mag. Time & Date
Minimum magnitude displayed is 2.5.

Coastal Water Temperatures

Place Temperature

Stations

Nearby Weather Stations

Station Location Temp. Windchill Dew Point Humidity Wind Precip. Elev Updated Type
                   

Watches & Warnings

There are currently no watches in effect.